createdAt,value
2022-11-17T00:00:33.094Z,74.78
2022-11-17T00:06:07.595Z,74.69
2022-11-17T00:11:57.473Z,74.52
2022-11-17T00:17:28.789Z,74.84
2022-11-17T00:22:59.863Z,74.56
2022-11-17T00:28:30.996Z,74.48
2022-11-17T00:34:07.834Z,74.46
2022-11-17T00:39:40.436Z,74.44
2022-11-17T00:45:11.758Z,74.24
2022-11-17T00:50:42.893Z,74.29
2022-11-17T00:56:14.099Z,74.64
2022-11-17T01:01:45.275Z,74.61
2022-11-17T01:07:16.566Z,74.61
2022-11-17T01:12:47.919Z,74.59
2022-11-17T01:18:18.778Z,74.59
2022-11-17T01:23:51.210Z,74.46
2022-11-17T01:29:22.270Z,74.41
2022-11-17T01:34:53.666Z,74.58
2022-11-17T01:40:24.745Z,74.52
2022-11-17T01:46:00.718Z,74.58
2022-11-17T01:51:33.949Z,74.53
2022-11-17T01:57:28.382Z,74.48
2022-11-17T02:03:00.010Z,74.42
2022-11-17T02:08:33.213Z,74.66
2022-11-17T02:14:05.701Z,74.70
2022-11-17T02:19:42.481Z,74.59
2022-11-17T02:25:16.435Z,74.54
2022-11-17T02:31:02.557Z,74.39
2022-11-17T02:36:56.338Z,74.30
2022-11-17T02:42:50.481Z,74.68
2022-11-17T02:48:28.675Z,74.66
2022-11-17T02:54:00.341Z,73.99
2022-11-17T02:59:35.120Z,74.50
2022-11-17T03:05:21.331Z,74.54
2022-11-17T03:10:57.893Z,74.22
2022-11-17T03:16:59.558Z,74.09
2022-11-17T03:22:33.929Z,73.98
2022-11-17T03:28:08.175Z,74.36
2022-11-17T03:33:41.096Z,74.34
2022-11-17T03:39:18.190Z,74.16
2022-11-17T03:44:51.954Z,73.83
2022-11-17T03:50:32.433Z,74.28
2022-11-17T03:56:15.311Z,74.03
2022-11-17T04:01:46.473Z,74.39
2022-11-17T04:07:17.927Z,74.20
2022-11-17T04:13:08.268Z,74.10
2022-11-17T04:18:39.432Z,74.50
2022-11-17T04:24:10.452Z,74.13
2022-11-17T04:29:41.740Z,73.94
2022-11-17T04:35:12.687Z,74.28
2022-11-17T04:41:04.036Z,73.99
2022-11-17T04:46:37.534Z,73.98
2022-11-17T04:52:08.592Z,74.50
2022-11-17T04:57:39.540Z,74.47
2022-11-17T05:03:10.913Z,74.85
2022-11-17T05:08:42.446Z,74.82
2022-11-17T05:14:15.928Z,74.47
2022-11-17T05:19:48.401Z,74.07
2022-11-17T05:25:19.514Z,74.21
2022-11-17T05:30:50.785Z,74.18
2022-11-17T05:36:23.215Z,74.04
2022-11-17T05:41:54.465Z,74.30
2022-11-17T05:47:25.758Z,74.34
2022-11-17T05:52:56.935Z,74.71
2022-11-17T05:58:30.374Z,74.55
2022-11-17T06:04:03.650Z,74.38
2022-11-17T06:09:37.026Z,74.30
2022-11-17T06:15:08.229Z,74.28
2022-11-17T06:20:42.178Z,74.26
2022-11-17T06:26:13.926Z,74.69
2022-11-17T06:31:45.568Z,74.16
2022-11-17T06:37:16.656Z,74.31
2022-11-17T06:43:06.344Z,74.87
2022-11-17T06:48:38.223Z,74.76
2022-11-17T06:54:10.882Z,74.39
2022-11-17T06:59:41.742Z,74.37
2022-11-17T07:05:13.112Z,74.18
2022-11-17T07:10:49.149Z,74.26
2022-11-17T07:16:23.787Z,74.29
2022-11-17T07:21:54.925Z,74.11
2022-11-17T07:27:25.922Z,74.39
2022-11-17T07:33:00.139Z,73.86
2022-11-17T07:38:34.041Z,74.01
2022-11-17T07:44:05.618Z,74.02
2022-11-17T07:49:36.844Z,74.08
2022-11-17T07:55:08.501Z,74.03
2022-11-17T08:00:39.605Z,74.17
2022-11-17T08:06:11.461Z,73.75
2022-11-17T08:11:42.427Z,74.11
2022-11-17T08:17:13.564Z,74.20
2022-11-17T08:22:44.737Z,74.27
2022-11-17T08:28:15.591Z,74.04
2022-11-17T08:33:46.472Z,74.17
2022-11-17T08:39:17.368Z,73.97
2022-11-17T08:44:48.331Z,74.25
2022-11-17T08:50:21.060Z,73.99
2022-11-17T08:55:52.815Z,74.11
2022-11-17T09:01:24.196Z,74.03
2022-11-17T09:06:55.806Z,74.10
2022-11-17T09:12:27.192Z,74.17
2022-11-17T09:17:58.272Z,74.34
2022-11-17T09:23:30.063Z,74.46
2022-11-17T09:29:03.327Z,74.36
2022-11-17T09:34:34.526Z,74.11
2022-11-17T09:40:07.231Z,74.53
2022-11-17T09:45:39.137Z,74.42
2022-11-17T09:51:14.511Z,74.15
2022-11-17T09:56:46.988Z,74.01
2022-11-17T10:02:18.136Z,74.57
2022-11-17T10:07:51.213Z,74.30
2022-11-17T10:13:25.675Z,74.17
2022-11-17T10:18:57.555Z,74.55
2022-11-17T10:24:34.927Z,74.48
2022-11-17T10:30:11.987Z,74.42
2022-11-17T10:35:54.631Z,74.49
2022-11-17T10:41:29.565Z,74.49
2022-11-17T10:47:07.445Z,74.57
2022-11-17T10:52:38.636Z,74.79
2022-11-17T10:58:27.997Z,74.61
2022-11-17T11:03:59.426Z,74.75
2022-11-17T11:09:31.148Z,74.69
2022-11-17T11:15:03.558Z,74.71
2022-11-17T11:21:12.665Z,74.80
2022-11-17T11:27:15.096Z,74.70
2022-11-17T11:32:58.659Z,74.73
2022-11-17T11:39:02.082Z,74.95
2022-11-17T11:44:54.846Z,74.78
2022-11-17T11:50:28.137Z,75.07
2022-11-17T11:56:23.594Z,74.78
2022-11-17T12:02:25.083Z,74.75
2022-11-17T12:08:10.356Z,74.91
2022-11-17T12:13:48.483Z,74.71
2022-11-17T12:19:44.593Z,74.91
2022-11-17T12:25:30.716Z,74.97
2022-11-17T12:31:24.583Z,74.68
2022-11-17T12:37:16.849Z,74.93
2022-11-17T12:43:15.924Z,75.04
2022-11-17T12:48:57.025Z,74.89
2022-11-17T12:54:41.226Z,74.91
2022-11-17T13:00:15.460Z,75.24
2022-11-17T13:06:28.289Z,75.04
2022-11-17T13:12:02.218Z,75.24
2022-11-17T13:17:40.420Z,74.82
2022-11-17T13:23:23.801Z,75.52
2022-11-17T13:29:06.860Z,75.34
2022-11-17T13:34:58.069Z,74.92
2022-11-17T13:40:30.164Z,75.03
2022-11-17T13:46:04.263Z,75.42
2022-11-17T13:51:39.429Z,75.40
2022-11-17T13:57:30.273Z,75.51
2022-11-17T14:03:05.627Z,75.32
2022-11-17T14:08:37.897Z,75.66
2022-11-17T14:14:13.567Z,75.18
2022-11-17T14:19:44.759Z,75.24
2022-11-17T14:25:15.881Z,75.16
2022-11-17T14:30:51.212Z,75.25
2022-11-17T14:36:22.671Z,75.08
2022-11-17T14:41:54.039Z,75.46
2022-11-17T14:47:24.935Z,75.48
2022-11-17T14:52:56.175Z,75.17
2022-11-17T14:58:27.279Z,75.36
2022-11-17T15:04:06.994Z,75.58
2022-11-17T15:09:47.206Z,75.39
2022-11-17T15:15:18.405Z,75.36
2022-11-17T15:21:02.732Z,75.24
2022-11-17T15:26:34.516Z,75.31
2022-11-17T15:32:06.067Z,75.31
2022-11-17T15:37:37.365Z,75.71
2022-11-17T15:43:08.509Z,75.63
2022-11-17T15:48:43.293Z,75.39
2022-11-17T15:54:19.931Z,75.37
2022-11-17T15:59:52.301Z,75.43
2022-11-17T16:05:23.676Z,75.53
2022-11-17T16:10:55.709Z,75.58
2022-11-17T16:16:29.144Z,75.33
2022-11-17T16:22:00.159Z,75.63
2022-11-17T16:27:33.057Z,75.79
2022-11-17T16:33:09.762Z,75.73
2022-11-17T16:38:55.066Z,75.58
2022-11-17T16:44:31.696Z,75.37
2022-11-17T16:50:04.148Z,75.88
2022-11-17T16:55:36.723Z,75.46
2022-11-17T17:01:17.204Z,75.36
2022-11-17T17:06:48.240Z,75.47
2022-11-17T17:12:19.335Z,75.71
2022-11-17T17:17:50.698Z,75.55
2022-11-17T17:23:22.016Z,75.47
2022-11-17T17:28:55.448Z,75.21
2022-11-17T17:34:26.615Z,75.63
2022-11-17T17:39:57.853Z,75.60
2022-11-17T17:45:29.630Z,75.69
2022-11-17T17:51:02.478Z,75.85
2022-11-17T17:56:34.047Z,75.49
2022-11-17T18:02:05.105Z,75.53
2022-11-17T18:07:36.326Z,75.76
2022-11-17T18:13:10.645Z,75.37
2022-11-17T18:18:42.394Z,75.61
2022-11-17T18:24:14.129Z,75.22
2022-11-17T18:29:45.501Z,75.60
2022-11-17T18:35:16.729Z,75.21
2022-11-17T18:40:47.697Z,75.12
2022-11-17T18:46:21.678Z,75.57
2022-11-17T18:51:53.242Z,75.32
2022-11-17T18:57:24.410Z,75.32
2022-11-17T19:02:55.500Z,75.40
2022-11-17T19:08:30.769Z,75.45
2022-11-17T19:14:04.337Z,75.48
2022-11-17T19:19:35.754Z,75.45
2022-11-17T19:25:07.570Z,75.58
2022-11-17T19:30:38.976Z,75.40
2022-11-17T19:36:11.202Z,75.30
2022-11-17T19:41:42.274Z,75.63
2022-11-17T19:47:13.403Z,75.04
2022-11-17T19:52:45.037Z,75.07
2022-11-17T19:58:17.631Z,75.30
2022-11-17T20:03:49.190Z,74.88
2022-11-17T20:09:20.370Z,75.25
2022-11-17T20:14:51.723Z,75.16
2022-11-17T20:20:22.809Z,75.05
2022-11-17T20:25:53.878Z,75.44
2022-11-17T20:31:26.798Z,75.42
2022-11-17T20:36:57.892Z,74.99
2022-11-17T20:42:29.230Z,75.37
2022-11-17T20:48:00.280Z,75.25
2022-11-17T20:53:32.349Z,75.06
2022-11-17T20:59:03.695Z,74.73
2022-11-17T21:04:35.187Z,75.06
2022-11-17T21:10:06.752Z,75.02
2022-11-17T21:15:37.751Z,74.88
2022-11-17T21:21:09.259Z,74.99
2022-11-17T21:26:40.466Z,75.17
2022-11-17T21:32:11.654Z,75.11
2022-11-17T21:37:43.057Z,75.11
2022-11-17T21:43:14.547Z,75.45
2022-11-17T21:48:46.350Z,75.63
2022-11-17T21:54:17.440Z,75.20
2022-11-17T21:59:48.753Z,75.51
2022-11-17T22:05:19.816Z,75.66
2022-11-17T22:10:50.816Z,75.66
2022-11-17T22:16:21.617Z,75.40
2022-11-17T22:21:53.868Z,75.53
2022-11-17T22:27:26.657Z,75.39
2022-11-17T22:32:58.058Z,75.38
2022-11-17T22:38:30.590Z,75.27
2022-11-17T22:44:01.874Z,75.39
2022-11-17T22:49:33.309Z,75.57
2022-11-17T22:55:05.227Z,75.55
2022-11-17T23:00:36.456Z,75.82
2022-11-17T23:06:07.641Z,75.64
2022-11-17T23:11:39.178Z,75.75
2022-11-17T23:17:10.530Z,75.64
2022-11-17T23:22:42.647Z,75.56
2022-11-17T23:28:13.665Z,75.86
2022-11-17T23:33:46.642Z,75.48
2022-11-17T23:39:18.074Z,75.32
2022-11-17T23:44:50.046Z,75.58
2022-11-17T23:50:21.363Z,75.68
2022-11-17T23:55:56.507Z,75.19
